createdAt,value
2022-10-18T00:00:06.878Z,7.28
2022-10-18T00:02:54.917Z,7.25
2022-10-18T00:05:21.550Z,7.18
2022-10-18T00:07:48.129Z,7.14
2022-10-18T00:10:14.783Z,7.09
2022-10-18T00:12:41.385Z,7.06
2022-10-18T00:15:08.672Z,7.04
2022-10-18T00:17:37.584Z,7.01
2022-10-18T00:20:05.829Z,7.02
2022-10-18T00:22:35.259Z,7.04
2022-10-18T00:25:01.883Z,7.07
2022-10-18T00:27:29.935Z,7.09
2022-10-18T00:29:56.726Z,7.10
2022-10-18T00:32:23.417Z,7.10
2022-10-18T00:34:50.200Z,7.10
2022-10-18T00:37:17.402Z,7.12
2022-10-18T00:39:44.533Z,7.13
2022-10-18T00:42:16.664Z,7.12
2022-10-18T00:44:43.234Z,7.10
2022-10-18T00:47:12.526Z,7.05
2022-10-18T00:49:45.947Z,6.97
2022-10-18T00:52:15.080Z,6.89
2022-10-18T00:54:44.031Z,6.81
2022-10-18T00:57:12.190Z,6.75
2022-10-18T00:59:40.912Z,6.67
2022-10-18T01:02:08.260Z,6.60
2022-10-18T01:04:35.148Z,6.55
2022-10-18T01:07:17.060Z,6.51
2022-10-18T01:09:55.662Z,6.48
2022-10-18T01:12:53.699Z,6.46
2022-10-18T01:15:49.955Z,6.46
2022-10-18T01:18:37.661Z,6.47
2022-10-18T01:21:19.606Z,6.50
2022-10-18T01:23:55.109Z,6.50
2022-10-18T01:26:32.175Z,6.46
2022-10-18T01:29:20.341Z,6.42
2022-10-18T01:31:55.302Z,6.38
2022-10-18T01:34:27.655Z,6.34
2022-10-18T01:36:57.034Z,6.29
2022-10-18T01:39:28.893Z,6.25
2022-10-18T01:41:58.616Z,6.20
2022-10-18T01:44:27.735Z,6.15
2022-10-18T01:46:56.401Z,6.13
2022-10-18T01:49:24.528Z,6.06
2022-10-18T01:51:51.241Z,6.02
2022-10-18T01:54:37.029Z,5.97
2022-10-18T01:57:14.138Z,5.94
2022-10-18T01:59:43.420Z,5.90
2022-10-18T02:02:15.621Z,5.86
2022-10-18T02:04:45.342Z,5.86
2022-10-18T02:08:00.113Z,5.84
2022-10-18T02:10:48.285Z,5.84
2022-10-18T02:13:19.206Z,5.82
2022-10-18T02:15:52.199Z,5.82
2022-10-18T02:18:25.068Z,5.83
2022-10-18T02:20:53.138Z,5.86
2022-10-18T02:23:23.039Z,5.88
2022-10-18T02:25:50.622Z,5.90
2022-10-18T02:28:17.426Z,5.92
2022-10-18T02:31:08.691Z,5.92
2022-10-18T02:33:51.227Z,5.91
2022-10-18T02:36:26.404Z,5.90
2022-10-18T02:38:57.117Z,5.85
2022-10-18T02:41:26.740Z,5.82
2022-10-18T02:43:53.922Z,5.80
2022-10-18T02:46:20.737Z,5.79
2022-10-18T02:48:47.565Z,5.78
2022-10-18T02:51:14.476Z,5.77
2022-10-18T02:53:41.227Z,5.74
2022-10-18T02:56:08.461Z,5.73
2022-10-18T02:58:35.094Z,5.73
2022-10-18T03:01:01.756Z,5.72
2022-10-18T03:03:28.366Z,5.68
2022-10-18T03:05:54.979Z,5.65
2022-10-18T03:08:22.201Z,5.62
2022-10-18T03:10:48.855Z,5.60
2022-10-18T03:13:15.898Z,5.59
2022-10-18T03:15:42.686Z,5.58
2022-10-18T03:18:09.279Z,5.58
2022-10-18T03:20:36.164Z,5.56
2022-10-18T03:23:02.824Z,5.55
2022-10-18T03:25:29.515Z,5.53
2022-10-18T03:27:56.116Z,5.50
2022-10-18T03:30:22.697Z,5.47
2022-10-18T03:32:49.344Z,5.43
2022-10-18T03:35:16.101Z,5.40
2022-10-18T03:37:42.744Z,5.37
2022-10-18T03:40:09.661Z,5.36
2022-10-18T03:42:36.387Z,5.32
2022-10-18T03:45:04.108Z,5.31
2022-10-18T03:47:30.881Z,5.30
2022-10-18T03:49:57.575Z,5.30
2022-10-18T03:52:24.298Z,5.29
2022-10-18T03:54:50.897Z,5.27
2022-10-18T03:57:17.642Z,5.28
2022-10-18T03:59:44.322Z,5.27
2022-10-18T04:02:10.922Z,5.25
2022-10-18T04:04:37.526Z,5.23
2022-10-18T04:07:04.166Z,5.21
2022-10-18T04:09:31.059Z,5.20
2022-10-18T04:11:57.692Z,5.19
2022-10-18T04:14:24.434Z,5.17
2022-10-18T04:16:51.070Z,5.14
2022-10-18T04:19:18.106Z,5.13
2022-10-18T04:21:44.878Z,5.10
2022-10-18T04:24:11.475Z,5.08
2022-10-18T04:26:38.123Z,5.05
2022-10-18T04:29:04.885Z,5.05
2022-10-18T04:31:31.529Z,5.03
2022-10-18T04:33:58.118Z,5.03
2022-10-18T04:36:24.772Z,5.01
2022-10-18T04:38:51.345Z,5.00
2022-10-18T04:41:17.925Z,4.98
2022-10-18T04:46:12.517Z,4.95
2022-10-18T04:48:39.211Z,4.96
2022-10-18T04:51:05.862Z,4.97
2022-10-18T04:53:32.524Z,4.97
2022-10-18T04:55:59.279Z,4.98
2022-10-18T04:58:25.937Z,5.00
2022-10-18T05:00:52.634Z,5.01
2022-10-18T05:03:19.301Z,5.04
2022-10-18T05:06:02.633Z,5.08
2022-10-18T05:08:34.201Z,5.14
2022-10-18T05:11:02.139Z,5.19
2022-10-18T05:13:29.826Z,5.24
2022-10-18T05:15:58.803Z,5.31
2022-10-18T05:18:25.665Z,5.36
2022-10-18T05:20:52.288Z,5.42
2022-10-18T05:23:18.910Z,5.46
2022-10-18T05:25:45.711Z,5.46
2022-10-18T05:28:34.758Z,5.58
2022-10-18T05:31:07.883Z,5.67
2022-10-18T05:33:35.679Z,5.76
2022-10-18T05:36:03.083Z,5.83
2022-10-18T05:38:30.500Z,5.90
2022-10-18T05:40:58.184Z,5.98
2022-10-18T05:43:28.517Z,6.08
2022-10-18T05:45:55.477Z,6.19
2022-10-18T05:48:22.302Z,6.30
2022-10-18T05:50:48.935Z,6.39
2022-10-18T05:53:35.365Z,6.48
2022-10-18T05:56:02.885Z,6.58
2022-10-18T05:58:29.575Z,6.68
2022-10-18T06:01:00.575Z,6.77
2022-10-18T06:03:29.735Z,6.90
2022-10-18T06:06:06.182Z,7.06
2022-10-18T06:08:34.164Z,7.24
2022-10-18T06:11:06.675Z,7.34
2022-10-18T06:13:33.939Z,7.42
2022-10-18T06:16:00.731Z,7.50
2022-10-18T06:18:29.273Z,7.57
2022-10-18T06:20:59.622Z,7.63
2022-10-18T06:23:27.556Z,7.69
2022-10-18T06:25:58.695Z,7.76
2022-10-18T06:28:25.896Z,7.82
2022-10-18T06:30:52.568Z,7.92
2022-10-18T06:33:19.189Z,8.01
2022-10-18T06:36:06.234Z,8.08
2022-10-18T06:38:33.738Z,8.18
2022-10-18T06:41:00.776Z,8.29
2022-10-18T06:43:27.581Z,8.41
2022-10-18T06:45:54.434Z,8.55
2022-10-18T06:48:22.300Z,8.66
2022-10-18T06:50:57.130Z,8.78
2022-10-18T06:53:25.837Z,8.89
2022-10-18T06:55:53.236Z,9.02
2022-10-18T06:58:19.852Z,9.17
2022-10-18T07:00:47.068Z,9.29
2022-10-18T07:03:13.734Z,9.45
2022-10-18T07:05:40.353Z,9.62
2022-10-18T07:08:07.057Z,9.78
2022-10-18T07:10:33.755Z,9.94
2022-10-18T07:13:19.921Z,10.12
2022-10-18T07:15:47.147Z,10.28
2022-10-18T07:18:14.041Z,10.45
2022-10-18T07:20:40.707Z,10.60
2022-10-18T07:23:08.945Z,10.74
2022-10-18T07:25:35.655Z,10.89
2022-10-18T07:28:02.248Z,11.00
2022-10-18T07:30:28.860Z,11.13
2022-10-18T07:32:55.452Z,11.29
2022-10-18T07:35:22.225Z,11.43
2022-10-18T07:37:48.826Z,11.57
2022-10-18T07:40:15.527Z,11.76
2022-10-18T07:42:42.109Z,11.90
2022-10-18T07:45:09.890Z,11.99
2022-10-18T07:47:36.743Z,12.11
2022-10-18T07:50:03.745Z,12.26
2022-10-18T07:52:30.335Z,12.40
2022-10-18T07:54:56.941Z,12.58
2022-10-18T07:57:23.545Z,12.77
2022-10-18T07:59:55.781Z,12.97
2022-10-18T08:02:23.922Z,13.18
2022-10-18T08:04:50.573Z,13.40
2022-10-18T08:07:17.297Z,13.63
2022-10-18T08:09:43.938Z,13.79
2022-10-18T08:12:10.588Z,13.97
2022-10-18T08:14:37.224Z,14.14
2022-10-18T08:17:03.874Z,14.49
2022-10-18T08:19:30.444Z,15.17
2022-10-18T08:21:57.039Z,15.94
2022-10-18T08:24:23.927Z,16.85
2022-10-18T08:26:50.559Z,17.70
2022-10-18T08:29:23.375Z,18.53
2022-10-18T08:31:51.585Z,19.26
2022-10-18T08:34:19.894Z,19.75
2022-10-18T08:36:46.856Z,20.40
2022-10-18T08:39:13.457Z,20.99
2022-10-18T08:41:51.797Z,21.40
2022-10-18T08:44:24.041Z,21.64
2022-10-18T08:46:58.078Z,22.02
2022-10-18T08:49:46.643Z,22.29
2022-10-18T08:52:16.451Z,22.75
2022-10-18T08:54:58.852Z,23.23
2022-10-18T08:57:25.677Z,23.68
2022-10-18T08:59:52.326Z,23.83
2022-10-18T09:02:43.706Z,23.92
2022-10-18T09:05:29.520Z,24.09
2022-10-18T09:07:56.089Z,24.42
2022-10-18T09:10:43.297Z,24.82
2022-10-18T09:13:24.656Z,24.94
2022-10-18T09:15:58.097Z,25.11
2022-10-18T09:18:30.505Z,24.91
2022-10-18T09:20:59.432Z,24.97
2022-10-18T09:23:42.295Z,25.20
2022-10-18T09:26:19.407Z,25.15
2022-10-18T09:29:07.296Z,25.43
2022-10-18T09:31:45.389Z,25.84
2022-10-18T09:34:24.329Z,26.01
2022-10-18T09:36:52.084Z,25.95
2022-10-18T09:39:23.329Z,26.09
2022-10-18T09:41:58.471Z,26.13
2022-10-18T09:44:48.586Z,26.05
2022-10-18T09:47:21.300Z,26.25
2022-10-18T09:49:56.998Z,26.42
2022-10-18T09:52:34.098Z,26.40
2022-10-18T09:55:09.009Z,26.26
2022-10-18T09:57:43.156Z,26.12
2022-10-18T10:00:29.221Z,26.15
2022-10-18T10:02:55.833Z,26.19
2022-10-18T10:05:22.580Z,26.26
2022-10-18T10:07:56.415Z,26.35
2022-10-18T10:10:25.099Z,26.34
2022-10-18T10:13:15.615Z,26.39
2022-10-18T10:16:02.663Z,26.72
2022-10-18T10:18:39.539Z,26.48
2022-10-18T10:21:12.967Z,26.27
2022-10-18T10:23:59.854Z,26.08
2022-10-18T10:26:38.273Z,26.26
2022-10-18T10:29:44.699Z,26.37
2022-10-18T10:32:18.081Z,26.58
2022-10-18T10:34:45.231Z,26.65
2022-10-18T10:37:41.239Z,26.61
2022-10-18T10:40:19.616Z,26.45
2022-10-18T10:43:33.041Z,26.53
2022-10-18T10:46:05.590Z,26.81
2022-10-18T10:48:57.032Z,27.00
2022-10-18T10:51:39.193Z,27.17
2022-10-18T10:54:27.310Z,27.17
2022-10-18T10:56:57.591Z,27.30
2022-10-18T10:59:26.572Z,27.54
2022-10-18T11:02:22.578Z,27.53
2022-10-18T11:04:51.441Z,27.69
2022-10-18T11:07:35.751Z,27.73
2022-10-18T11:10:18.865Z,27.83
2022-10-18T11:12:49.906Z,27.70
2022-10-18T11:15:35.823Z,27.43
2022-10-18T11:18:08.111Z,27.72
2022-10-18T11:20:42.592Z,27.83
2022-10-18T11:23:13.853Z,27.76
2022-10-18T11:25:45.725Z,27.48
2022-10-18T11:28:31.429Z,27.46
2022-10-18T11:30:58.701Z,27.15
2022-10-18T11:34:07.166Z,26.98
2022-10-18T11:36:40.382Z,27.40
2022-10-18T11:39:25.541Z,27.70
2022-10-18T11:42:00.430Z,27.64
2022-10-18T11:44:49.427Z,27.79
2022-10-18T11:47:55.880Z,28.13
2022-10-18T11:50:37.826Z,28.24
2022-10-18T11:53:19.925Z,28.39
2022-10-18T11:56:12.369Z,28.43
2022-10-18T11:59:02.086Z,28.48
2022-10-18T12:01:41.268Z,28.19
2022-10-18T12:04:16.874Z,28.14
2022-10-18T12:06:47.125Z,28.24
2022-10-18T12:09:44.806Z,28.26
2022-10-18T12:12:16.061Z,28.00
2022-10-18T12:14:50.441Z,28.15
2022-10-18T12:17:46.382Z,28.28
2022-10-18T12:20:37.408Z,28.18
2022-10-18T12:23:10.879Z,28.22
2022-10-18T12:25:41.631Z,28.24
2022-10-18T12:28:08.235Z,28.19
2022-10-18T12:30:53.680Z,28.15
2022-10-18T12:33:28.595Z,28.33
2022-10-18T12:36:11.108Z,28.23
2022-10-18T12:38:45.288Z,28.09
2022-10-18T12:41:28.113Z,27.96
2022-10-18T12:44:07.512Z,28.08
2022-10-18T12:46:53.059Z,28.16
2022-10-18T12:49:28.509Z,27.99
2022-10-18T12:52:18.557Z,27.91
2022-10-18T12:55:06.112Z,27.82
2022-10-18T12:57:51.098Z,27.78
2022-10-18T13:00:29.701Z,27.46
2022-10-18T13:03:26.160Z,27.13
2022-10-18T13:05:57.204Z,26.80
2022-10-18T13:08:26.604Z,26.59
2022-10-18T13:11:08.733Z,26.18
2022-10-18T13:14:23.568Z,26.01
2022-10-18T13:17:18.545Z,25.88
2022-10-18T13:20:07.727Z,25.63
2022-10-18T13:23:38.279Z,25.45
2022-10-18T13:26:12.278Z,25.53
2022-10-18T13:29:11.408Z,25.24
2022-10-18T13:31:58.196Z,25.25
2022-10-18T13:34:37.897Z,25.27
2022-10-18T13:37:18.386Z,25.12
2022-10-18T13:39:45.629Z,24.75
2022-10-18T13:42:15.317Z,24.53
2022-10-18T13:44:44.147Z,24.50
2022-10-18T13:47:31.467Z,24.41
2022-10-18T13:50:32.322Z,24.33
2022-10-18T13:53:04.710Z,24.44
2022-10-18T13:56:10.260Z,24.26
2022-10-18T13:59:15.129Z,24.24
2022-10-18T14:02:08.491Z,24.06
2022-10-18T14:04:43.447Z,23.82
2022-10-18T14:07:11.378Z,23.59
2022-10-18T14:09:52.354Z,23.45
2022-10-18T14:12:20.858Z,23.34
2022-10-18T14:15:06.887Z,23.13
2022-10-18T14:17:35.726Z,22.62
2022-10-18T14:20:20.597Z,22.21
2022-10-18T14:23:00.563Z,21.96
2022-10-18T14:25:29.964Z,21.71
2022-10-18T14:28:10.035Z,21.46
2022-10-18T14:30:52.184Z,21.21
2022-10-18T14:33:35.337Z,20.89
2022-10-18T14:36:09.199Z,20.78
2022-10-18T14:38:49.866Z,20.81
2022-10-18T14:41:21.738Z,20.78
2022-10-18T14:43:50.228Z,20.58
2022-10-18T14:46:28.111Z,20.23
2022-10-18T14:49:01.658Z,19.79
2022-10-18T14:51:33.577Z,19.32
2022-10-18T14:54:00.569Z,18.87
2022-10-18T14:56:29.652Z,18.46
2022-10-18T14:58:59.512Z,18.09
2022-10-18T15:01:30.260Z,17.77
2022-10-18T15:03:59.172Z,17.53
2022-10-18T15:06:26.566Z,17.32
2022-10-18T15:08:57.475Z,17.12
2022-10-18T15:11:25.779Z,16.93
2022-10-18T15:13:57.401Z,16.77
2022-10-18T15:16:27.560Z,16.61
2022-10-18T15:19:01.593Z,16.45
2022-10-18T15:21:28.311Z,16.27
2022-10-18T15:24:14.942Z,16.13
2022-10-18T15:26:44.474Z,15.99
2022-10-18T15:29:18.874Z,15.86
2022-10-18T15:31:47.629Z,15.75
2022-10-18T15:34:17.164Z,15.65
2022-10-18T15:36:44.707Z,15.52
2022-10-18T15:39:20.383Z,15.39
2022-10-18T15:41:54.397Z,15.29
2022-10-18T15:44:52.737Z,15.20
2022-10-18T15:47:24.409Z,15.11
2022-10-18T15:49:54.937Z,15.07
2022-10-18T15:52:24.579Z,15.06
2022-10-18T15:54:51.172Z,15.07
2022-10-18T15:57:17.873Z,15.06
2022-10-18T16:00:03.440Z,15.04
2022-10-18T16:02:38.589Z,14.98
2022-10-18T16:05:05.512Z,14.95
2022-10-18T16:07:32.428Z,14.93
2022-10-18T16:09:59.264Z,14.90
2022-10-18T16:12:25.938Z,14.91
2022-10-18T16:14:52.549Z,14.92
2022-10-18T16:17:19.525Z,14.91
2022-10-18T16:19:46.193Z,14.93
2022-10-18T16:24:44.985Z,14.85
2022-10-18T16:27:11.764Z,14.81
2022-10-18T16:29:38.391Z,14.79
2022-10-18T16:32:05.045Z,14.75
2022-10-18T16:34:31.763Z,14.71
2022-10-18T16:36:58.666Z,14.66
2022-10-18T16:39:25.751Z,14.58
2022-10-18T16:41:52.401Z,14.47
2022-10-18T16:44:19.221Z,14.42
2022-10-18T16:46:47.646Z,14.39
2022-10-18T16:49:24.445Z,14.32
2022-10-18T16:51:53.431Z,14.25
2022-10-18T16:54:20.215Z,14.19
2022-10-18T16:56:49.899Z,14.14
2022-10-18T16:59:28.727Z,14.12
2022-10-18T17:01:55.566Z,14.10
2022-10-18T17:04:22.337Z,14.04
2022-10-18T17:06:49.162Z,13.99
2022-10-18T17:09:16.151Z,13.99
2022-10-18T17:11:43.013Z,13.98
2022-10-18T17:14:09.614Z,13.95
2022-10-18T17:16:38.158Z,13.96
2022-10-18T17:19:06.990Z,13.99
2022-10-18T17:21:34.461Z,14.04
2022-10-18T17:24:02.623Z,14.05
2022-10-18T17:26:30.280Z,14.01
2022-10-18T17:29:00.615Z,13.94
2022-10-18T17:31:29.064Z,13.90
2022-10-18T17:33:57.818Z,13.87
2022-10-18T17:36:24.499Z,13.86
2022-10-18T17:38:52.451Z,13.81
2022-10-18T17:41:19.544Z,13.77
2022-10-18T17:43:47.508Z,13.75
2022-10-18T17:46:14.437Z,13.77
2022-10-18T17:48:41.550Z,13.77
2022-10-18T17:51:09.902Z,13.73
2022-10-18T17:53:36.863Z,13.64
2022-10-18T17:56:04.166Z,13.54
2022-10-18T17:58:31.629Z,13.45
2022-10-18T18:01:18.133Z,13.37
2022-10-18T18:03:47.107Z,13.28
2022-10-18T18:06:17.854Z,13.15
2022-10-18T18:08:45.343Z,12.95
2022-10-18T18:11:12.477Z,12.76
2022-10-18T18:13:39.319Z,12.61
2022-10-18T18:16:21.450Z,12.50
2022-10-18T18:18:50.414Z,12.43
2022-10-18T18:21:17.780Z,12.41
2022-10-18T18:23:45.054Z,12.38
2022-10-18T18:26:13.625Z,12.34
2022-10-18T18:28:40.587Z,12.30
2022-10-18T18:31:25.210Z,12.28
2022-10-18T18:33:54.135Z,12.27
2022-10-18T18:36:21.757Z,12.28
2022-10-18T18:38:55.463Z,12.32
2022-10-18T18:41:26.442Z,12.43
2022-10-18T18:44:03.677Z,12.47
2022-10-18T18:46:36.053Z,12.46
2022-10-18T18:49:02.960Z,12.47
2022-10-18T18:51:29.884Z,12.44
2022-10-18T18:53:56.566Z,12.44
2022-10-18T18:56:25.358Z,12.45
2022-10-18T18:58:53.569Z,12.40
2022-10-18T19:01:23.958Z,12.27
2022-10-18T19:03:53.040Z,12.09
2022-10-18T19:06:26.703Z,11.97
2022-10-18T19:08:59.718Z,11.81
2022-10-18T19:11:28.865Z,11.70
2022-10-18T19:13:55.665Z,11.59
2022-10-18T19:16:25.787Z,11.50
2022-10-18T19:18:58.022Z,11.44
2022-10-18T19:21:27.048Z,11.42
2022-10-18T19:23:55.529Z,11.38
2022-10-18T19:26:31.730Z,11.34
2022-10-18T19:29:04.910Z,11.32
2022-10-18T19:31:31.895Z,11.30
2022-10-18T19:33:59.599Z,11.28
2022-10-18T19:36:28.185Z,11.25
2022-10-18T19:38:55.267Z,11.23
2022-10-18T19:41:23.137Z,11.26
2022-10-18T19:43:51.791Z,11.30
2022-10-18T19:46:18.476Z,11.31
2022-10-18T19:48:45.222Z,11.33
2022-10-18T19:51:15.980Z,11.36
2022-10-18T19:53:46.401Z,11.38
2022-10-18T19:56:18.458Z,11.51
2022-10-18T19:58:45.891Z,11.58
2022-10-18T20:01:13.870Z,11.51
2022-10-18T20:03:40.707Z,11.39
2022-10-18T20:06:07.916Z,11.24
2022-10-18T20:08:35.671Z,11.10
2022-10-18T20:11:05.663Z,11.00
2022-10-18T20:13:32.864Z,10.95
2022-10-18T20:15:59.993Z,10.93
2022-10-18T20:18:26.887Z,10.90
2022-10-18T20:20:53.637Z,10.91
2022-10-18T20:23:21.220Z,10.92
2022-10-18T20:25:56.772Z,10.93
2022-10-18T20:28:24.453Z,10.91
2022-10-18T20:31:10.108Z,10.87
2022-10-18T20:33:37.631Z,10.83
2022-10-18T20:36:09.964Z,10.80
2022-10-18T20:38:38.914Z,10.79
2022-10-18T20:41:11.972Z,10.81
2022-10-18T20:43:39.347Z,10.79
2022-10-18T20:46:07.216Z,10.73
2022-10-18T20:48:34.838Z,10.62
2022-10-18T20:51:10.102Z,10.53
2022-10-18T20:53:37.303Z,10.48
2022-10-18T20:56:06.134Z,10.44
2022-10-18T20:58:33.986Z,10.38
2022-10-18T21:01:05.632Z,10.30
2022-10-18T21:03:32.549Z,10.24
2022-10-18T21:06:01.748Z,10.22
2022-10-18T21:08:28.750Z,10.21
2022-10-18T21:10:55.312Z,10.19
2022-10-18T21:13:21.916Z,10.15
2022-10-18T21:15:56.454Z,10.10
2022-10-18T21:18:29.154Z,10.08
2022-10-18T21:21:05.443Z,10.05
2022-10-18T21:23:33.247Z,10.04
2022-10-18T21:25:59.838Z,10.05
2022-10-18T21:28:26.538Z,10.04
2022-10-18T21:30:53.339Z,10.04
2022-10-18T21:33:19.985Z,10.02
2022-10-18T21:35:46.673Z,9.97
2022-10-18T21:38:13.351Z,9.95
2022-10-18T21:40:43.920Z,9.93
2022-10-18T21:43:11.292Z,9.93
2022-10-18T21:45:37.905Z,9.96
2022-10-18T21:48:04.927Z,9.98
2022-10-18T21:50:33.690Z,9.98
2022-10-18T21:53:00.371Z,9.98
2022-10-18T21:55:27.042Z,9.97
2022-10-18T21:57:53.654Z,9.96
2022-10-18T22:00:20.542Z,9.97
2022-10-18T22:02:47.619Z,9.95
2022-10-18T22:05:14.220Z,9.94
2022-10-18T22:07:40.949Z,9.97
2022-10-18T22:10:07.874Z,9.95
2022-10-18T22:12:34.485Z,9.89
2022-10-18T22:15:02.117Z,9.86
2022-10-18T22:17:29.030Z,9.84
2022-10-18T22:19:55.643Z,9.86
2022-10-18T22:22:23.026Z,9.86
2022-10-18T22:24:49.598Z,9.83
2022-10-18T22:27:16.197Z,9.77
2022-10-18T22:29:42.792Z,9.70
2022-10-18T22:32:09.515Z,9.63
2022-10-18T22:34:36.226Z,9.54
2022-10-18T22:37:02.916Z,9.46
2022-10-18T22:39:29.570Z,9.43
2022-10-18T22:41:56.761Z,9.41
2022-10-18T22:44:24.205Z,9.41
2022-10-18T22:46:51.055Z,9.45
2022-10-18T22:49:17.748Z,9.59
2022-10-18T22:51:44.435Z,9.58
2022-10-18T22:54:11.024Z,9.50
2022-10-18T22:56:38.014Z,9.48
2022-10-18T22:59:05.076Z,9.47
2022-10-18T23:01:31.793Z,9.46
2022-10-18T23:03:59.607Z,9.44
2022-10-18T23:06:32.320Z,9.43
2022-10-18T23:09:01.630Z,9.40
2022-10-18T23:11:28.476Z,9.38
2022-10-18T23:13:55.295Z,9.38
2022-10-18T23:16:22.686Z,9.46
2022-10-18T23:18:51.319Z,9.56
2022-10-18T23:21:18.491Z,9.51
2022-10-18T23:23:45.181Z,9.41
2022-10-18T23:26:17.808Z,9.31
2022-10-18T23:28:46.826Z,9.26
2022-10-18T23:31:19.390Z,9.21
2022-10-18T23:33:48.158Z,9.17
2022-10-18T23:36:15.840Z,9.15
2022-10-18T23:38:43.257Z,9.18
2022-10-18T23:41:11.811Z,9.32
2022-10-18T23:43:39.095Z,9.26
2022-10-18T23:46:05.997Z,9.20
2022-10-18T23:48:33.686Z,9.14
2022-10-18T23:51:01.162Z,9.10
2022-10-18T23:53:28.603Z,9.08
2022-10-18T23:55:58.032Z,9.07
2022-10-18T23:58:26.255Z,9.04
